createdAt,value
2022-11-05T00:01:50.424Z,12.48
2022-11-05T00:04:36.327Z,12.48
2022-11-05T00:07:29.468Z,11.07
2022-11-05T00:10:03.525Z,9.57
2022-11-05T00:12:49.568Z,12.02
2022-11-05T00:15:44.902Z,11.30
2022-11-05T00:18:12.996Z,12.45
2022-11-05T00:20:40.884Z,11.95
2022-11-05T00:23:26.395Z,9.52
2022-11-05T00:25:57.590Z,10.43
2022-11-05T00:28:25.962Z,11.93
2022-11-05T00:30:54.241Z,10.70
2022-11-05T00:33:22.345Z,10.45
2022-11-05T00:35:50.289Z,11.85
2022-11-05T00:38:18.363Z,10.57
2022-11-05T00:40:46.545Z,11.57
2022-11-05T00:43:33.135Z,14.25
2022-11-05T00:46:01.132Z,14.27
2022-11-05T00:48:46.617Z,12.52
2022-11-05T00:51:14.530Z,11.68
2022-11-05T00:53:42.502Z,11.30
2022-11-05T00:56:10.458Z,10.13
2022-11-05T00:58:39.915Z,13.30
2022-11-05T01:01:11.563Z,8.55
2022-11-05T01:03:41.359Z,12.18
2022-11-05T01:06:11.523Z,12.55
2022-11-05T01:08:40.296Z,11.90
2022-11-05T01:11:11.597Z,10.20
2022-11-05T01:13:41.369Z,11.07
2022-11-05T01:16:10.971Z,10.98
2022-11-05T01:18:39.547Z,12.23
2022-11-05T01:21:14.469Z,11.02
2022-11-05T01:23:42.449Z,15.45
2022-11-05T01:26:12.666Z,12.80
2022-11-05T01:28:42.002Z,10.57
2022-11-05T01:31:10.000Z,10.00
2022-11-05T01:33:37.908Z,12.70
2022-11-05T01:36:06.311Z,9.35
2022-11-05T01:38:34.449Z,12.00
2022-11-05T01:41:02.387Z,13.73
2022-11-05T01:43:48.922Z,12.07
2022-11-05T01:46:19.555Z,9.27
2022-11-05T01:48:50.248Z,10.80
2022-11-05T01:51:21.846Z,12.25
2022-11-05T01:53:54.585Z,11.73
2022-11-05T01:56:28.003Z,12.57
2022-11-05T01:59:03.122Z,10.75
2022-11-05T02:01:31.188Z,10.70
2022-11-05T02:04:03.388Z,10.90
2022-11-05T02:06:33.680Z,7.90
2022-11-05T02:09:07.492Z,10.80
2022-11-05T02:11:35.978Z,9.45
2022-11-05T02:14:05.900Z,11.35
2022-11-05T02:16:42.193Z,10.15
2022-11-05T02:19:37.273Z,9.65
2022-11-05T02:22:38.419Z,11.25
2022-11-05T02:25:25.650Z,11.52
2022-11-05T02:28:15.690Z,12.88
2022-11-05T02:30:50.505Z,10.60
2022-11-05T02:33:42.794Z,13.25
2022-11-05T02:36:25.671Z,11.80
2022-11-05T02:39:07.194Z,11.07
2022-11-05T02:41:41.599Z,11.13
2022-11-05T02:44:18.445Z,13.60
2022-11-05T02:46:55.317Z,10.70
2022-11-05T02:49:40.957Z,10.98
2022-11-05T02:52:16.283Z,14.88
2022-11-05T02:54:52.538Z,14.55
2022-11-05T02:57:22.216Z,16.92
2022-11-05T02:59:50.469Z,14.57
2022-11-05T03:02:19.877Z,18.27
2022-11-05T03:04:48.007Z,19.63
2022-11-05T03:07:47.353Z,18.52
2022-11-05T03:10:56.696Z,17.00
2022-11-05T03:13:40.194Z,17.63
2022-11-05T03:16:40.551Z,21.20
2022-11-05T03:19:24.268Z,20.15
2022-11-05T03:22:12.724Z,18.33
2022-11-05T03:25:00.282Z,19.20
2022-11-05T03:27:35.758Z,20.73
2022-11-05T03:30:12.686Z,19.60
2022-11-05T03:32:51.192Z,18.33
2022-11-05T03:35:25.000Z,19.70
2022-11-05T03:37:57.996Z,15.93
2022-11-05T03:40:27.301Z,20.02
2022-11-05T03:42:58.772Z,18.52
2022-11-05T03:45:29.911Z,20.00
2022-11-05T03:48:02.026Z,15.40
2022-11-05T03:50:40.128Z,15.77
2022-11-05T03:53:15.392Z,14.80
2022-11-05T03:55:49.589Z,14.27
2022-11-05T03:58:20.130Z,12.77
2022-11-05T04:00:49.612Z,13.45
2022-11-05T04:03:17.626Z,10.48
2022-11-05T04:06:08.440Z,10.10
2022-11-05T04:08:54.011Z,8.13
2022-11-05T04:11:39.931Z,11.02
2022-11-05T04:14:07.933Z,10.43
2022-11-05T04:16:53.331Z,10.00
2022-11-05T04:19:41.563Z,9.02
2022-11-05T04:22:28.578Z,9.70
2022-11-05T04:24:56.669Z,8.90
2022-11-05T04:27:24.793Z,9.07
2022-11-05T04:30:10.075Z,7.65
2022-11-05T04:32:38.175Z,6.45
2022-11-05T04:35:06.771Z,7.82
2022-11-05T04:37:36.379Z,7.10
2022-11-05T04:40:04.581Z,8.23
2022-11-05T04:42:32.704Z,7.38
2022-11-05T04:45:02.738Z,7.78
2022-11-05T04:47:30.726Z,7.53
2022-11-05T04:49:58.716Z,6.97
2022-11-05T04:52:27.025Z,5.70
2022-11-05T04:54:56.373Z,6.97
2022-11-05T04:57:24.486Z,6.97
2022-11-05T04:59:53.906Z,7.50
2022-11-05T05:02:24.579Z,6.00
2022-11-05T05:04:52.744Z,6.80
2022-11-05T05:07:20.796Z,6.15
2022-11-05T05:09:48.832Z,6.60
2022-11-05T05:12:18.331Z,7.40
2022-11-05T05:14:48.722Z,7.20
2022-11-05T05:17:17.319Z,10.00
2022-11-05T05:20:02.694Z,7.90
2022-11-05T05:22:30.831Z,8.60
2022-11-05T05:24:59.931Z,6.57
2022-11-05T05:27:30.499Z,7.25
2022-11-05T05:29:59.482Z,7.28
2022-11-05T05:32:28.097Z,7.45
2022-11-05T05:34:56.123Z,5.95
2022-11-05T05:37:24.094Z,6.28
2022-11-05T05:39:53.616Z,6.30
2022-11-05T05:42:22.931Z,5.95
2022-11-05T05:44:52.346Z,4.97
2022-11-05T05:47:20.546Z,7.78
2022-11-05T05:49:48.482Z,7.78
2022-11-05T05:52:16.475Z,7.55
2022-11-05T05:54:44.569Z,5.00
2022-11-05T05:57:12.635Z,7.03
2022-11-05T05:59:40.866Z,8.95
2022-11-05T06:02:11.883Z,6.65
2022-11-05T06:04:40.111Z,9.13
2022-11-05T06:07:08.895Z,7.45
2022-11-05T06:09:36.825Z,6.53
2022-11-05T06:12:05.172Z,9.20
2022-11-05T06:14:33.188Z,9.35
2022-11-05T06:17:01.300Z,6.30
2022-11-05T06:19:31.022Z,10.68
2022-11-05T06:21:59.164Z,8.43
2022-11-05T06:24:27.305Z,8.07
2022-11-05T06:26:55.385Z,7.88
2022-11-05T06:29:23.450Z,11.45
2022-11-05T06:31:51.576Z,9.10
2022-11-05T06:34:19.623Z,10.70
2022-11-05T06:36:49.151Z,8.77
2022-11-05T06:39:17.276Z,8.70
2022-11-05T06:42:11.906Z,7.82
2022-11-05T06:44:33.720Z,8.35
2022-11-05T06:47:01.821Z,7.18
2022-11-05T06:49:30.022Z,9.20
2022-11-05T06:51:59.650Z,9.63
2022-11-05T06:54:27.775Z,9.25
2022-11-05T06:56:56.713Z,6.30
2022-11-05T06:59:24.716Z,6.63
2022-11-05T07:01:52.715Z,8.57
2022-11-05T07:04:22.624Z,10.93
2022-11-05T07:06:50.870Z,7.25
2022-11-05T07:09:20.503Z,6.32
2022-11-05T07:11:48.616Z,9.02
2022-11-05T07:14:16.682Z,9.65
2022-11-05T07:16:44.797Z,10.25
2022-11-05T07:19:13.198Z,10.98
2022-11-05T07:21:41.329Z,6.90
2022-11-05T07:24:10.110Z,7.38
2022-11-05T07:26:39.634Z,8.10
2022-11-05T07:29:07.575Z,9.95
2022-11-05T07:31:35.738Z,10.13
2022-11-05T07:34:04.686Z,10.30
2022-11-05T07:36:32.864Z,8.35
2022-11-05T07:39:00.945Z,7.43
2022-11-05T07:41:29.344Z,11.15
2022-11-05T07:43:59.010Z,10.15
2022-11-05T07:46:27.119Z,9.70
2022-11-05T07:48:55.074Z,8.80
2022-11-05T07:51:23.661Z,13.23
2022-11-05T07:53:51.804Z,10.35
2022-11-05T07:56:19.805Z,7.53
2022-11-05T07:58:47.999Z,8.73
2022-11-05T08:01:17.879Z,8.63
2022-11-05T08:03:46.426Z,8.88
2022-11-05T08:06:14.649Z,10.70
2022-11-05T08:08:42.556Z,12.38
2022-11-05T08:11:12.166Z,9.32
2022-11-05T08:13:40.552Z,7.95
2022-11-05T08:16:09.675Z,8.30
2022-11-05T08:18:39.818Z,9.02
2022-11-05T08:21:08.916Z,8.65
2022-11-05T08:23:38.640Z,8.90
2022-11-05T08:26:06.874Z,10.23
2022-11-05T08:28:34.922Z,9.20
2022-11-05T08:31:03.011Z,9.30
2022-11-05T08:33:31.424Z,6.82
2022-11-05T08:36:09.116Z,8.50
2022-11-05T08:38:37.026Z,12.05
2022-11-05T08:41:07.993Z,9.05
2022-11-05T08:43:36.034Z,7.80
2022-11-05T08:46:04.109Z,12.10
2022-11-05T08:48:32.116Z,15.15
2022-11-05T08:51:02.155Z,9.60
2022-11-05T08:53:31.454Z,9.35
2022-11-05T08:56:00.614Z,7.88
2022-11-05T08:58:28.961Z,11.23
2022-11-05T09:01:01.804Z,7.65
2022-11-05T09:03:33.150Z,7.93
2022-11-05T09:06:04.151Z,7.93
2022-11-05T09:08:33.714Z,8.00
2022-11-05T09:11:02.344Z,11.68
2022-11-05T09:13:30.331Z,13.75
2022-11-05T09:15:59.879Z,10.38
2022-11-05T09:18:30.107Z,9.93
2022-11-05T09:20:58.311Z,7.57
2022-11-05T09:23:26.320Z,10.38
2022-11-05T09:25:55.715Z,7.13
2022-11-05T09:28:24.500Z,9.88
2022-11-05T09:30:53.743Z,10.90
2022-11-05T09:33:23.103Z,8.55
2022-11-05T09:35:51.662Z,6.97
2022-11-05T09:38:22.282Z,5.90
2022-11-05T09:40:59.269Z,6.70
2022-11-05T09:43:34.778Z,13.77
2022-11-05T09:46:13.335Z,7.72
2022-11-05T09:48:43.152Z,8.05
2022-11-05T09:51:26.331Z,8.73
2022-11-05T09:53:54.481Z,7.03
2022-11-05T09:56:27.568Z,7.57
2022-11-05T09:59:01.053Z,7.95
2022-11-05T10:01:32.844Z,8.02
2022-11-05T10:04:03.920Z,9.20
2022-11-05T10:06:31.927Z,11.23
2022-11-05T10:09:06.573Z,9.85
2022-11-05T10:11:42.397Z,12.23
2022-11-05T10:14:16.201Z,9.52
2022-11-05T10:16:49.158Z,10.27
2022-11-05T10:19:22.156Z,7.65
2022-11-05T10:22:06.038Z,8.73
2022-11-05T10:24:34.834Z,9.07
2022-11-05T10:27:05.788Z,9.68
2022-11-05T10:29:38.540Z,8.38
2022-11-05T10:32:07.433Z,6.63
2022-11-05T10:34:37.817Z,7.90
2022-11-05T10:37:06.488Z,11.38
2022-11-05T10:39:40.402Z,10.55
2022-11-05T10:42:29.570Z,14.68
2022-11-05T10:45:05.037Z,12.35
2022-11-05T10:47:49.960Z,8.23
2022-11-05T10:50:20.741Z,8.90
2022-11-05T10:52:59.839Z,8.52
2022-11-05T10:55:36.205Z,8.50
2022-11-05T10:58:23.728Z,5.65
2022-11-05T11:01:05.551Z,5.25
2022-11-05T11:03:36.890Z,6.32
2022-11-05T11:06:07.955Z,4.97
2022-11-05T11:08:38.193Z,6.88
2022-11-05T11:11:11.397Z,5.72
2022-11-05T11:14:01.584Z,7.10
2022-11-05T11:16:34.691Z,7.88
2022-11-05T11:19:03.446Z,7.60
2022-11-05T11:21:32.975Z,5.95
2022-11-05T11:24:03.771Z,3.78
2022-11-05T11:26:34.223Z,4.10
2022-11-05T11:29:14.510Z,6.95
2022-11-05T11:31:43.166Z,4.20
2022-11-05T11:34:18.315Z,4.50
2022-11-05T11:36:48.859Z,5.22
2022-11-05T11:39:19.689Z,2.95
2022-11-05T11:41:53.632Z,3.85
2022-11-05T11:44:27.434Z,5.25
2022-11-05T11:47:01.139Z,4.05
2022-11-05T11:49:34.777Z,2.30
2022-11-05T11:52:07.415Z,1.58
2022-11-05T11:54:35.896Z,2.63
2022-11-05T11:57:04.395Z,3.92
2022-11-05T12:00:06.498Z,4.55
2022-11-05T12:02:55.896Z,3.17
2022-11-05T12:05:36.259Z,6.63
2022-11-05T12:08:16.712Z,1.73
2022-11-05T12:10:57.786Z,3.88
2022-11-05T12:15:55.006Z,5.88
2022-11-05T12:18:30.452Z,3.45
2022-11-05T12:21:40.723Z,5.57
2022-11-05T12:24:30.632Z,3.47
2022-11-05T12:27:12.006Z,5.03
2022-11-05T12:29:53.140Z,2.88
2022-11-05T12:43:00.824Z,5.22
2022-11-05T12:45:52.141Z,4.20
2022-11-05T12:49:09.519Z,5.00
2022-11-05T12:52:16.683Z,5.55
2022-11-05T12:55:10.369Z,3.55
2022-11-05T12:58:06.638Z,1.98
2022-11-05T13:00:59.631Z,5.95
2022-11-05T13:03:53.276Z,8.82
2022-11-05T13:06:46.161Z,3.10
2022-11-05T13:12:27.625Z,7.80
2022-11-05T13:15:25.783Z,10.95
2022-11-05T13:18:17.662Z,6.20
2022-11-05T13:21:09.668Z,7.70
2022-11-05T13:24:04.209Z,6.03
2022-11-05T13:26:39.676Z,4.97
2022-11-05T13:29:12.594Z,10.23
2022-11-05T13:31:46.626Z,5.40
2022-11-05T13:34:14.720Z,3.42
2022-11-05T13:37:08.185Z,3.45
2022-11-05T13:39:39.221Z,4.15
2022-11-05T13:42:34.923Z,3.38
2022-11-05T13:45:39.106Z,4.75
2022-11-05T13:48:34.421Z,7.75
2022-11-05T13:51:27.941Z,7.13
2022-11-05T13:54:22.522Z,7.47
2022-11-05T13:57:05.405Z,5.32
2022-11-05T13:59:57.224Z,6.00
2022-11-05T14:02:36.105Z,5.20
2022-11-05T14:05:08.455Z,5.03
2022-11-05T14:07:39.436Z,6.72
2022-11-05T14:10:21.452Z,4.47
2022-11-05T14:12:51.933Z,6.13
2022-11-05T14:15:23.082Z,6.55
2022-11-05T14:18:01.059Z,8.50
2022-11-05T14:20:57.291Z,7.43
2022-11-05T14:23:50.430Z,7.47
2022-11-05T14:26:21.544Z,7.03
2022-11-05T14:28:51.815Z,7.18
2022-11-05T14:31:47.282Z,4.75
2022-11-05T14:34:41.271Z,7.30
2022-11-05T14:37:42.422Z,6.10
2022-11-05T14:40:37.384Z,7.00
2022-11-05T14:43:08.313Z,8.82
2022-11-05T14:45:39.114Z,10.00
2022-11-05T14:48:24.837Z,6.72
2022-11-05T14:50:53.010Z,7.97
2022-11-05T14:53:34.538Z,8.15
2022-11-05T14:56:05.551Z,7.70
2022-11-05T14:58:36.547Z,8.88
2022-11-05T15:01:07.085Z,11.02
2022-11-05T15:04:00.541Z,7.10
2022-11-05T15:06:34.036Z,12.48
2022-11-05T15:09:24.005Z,8.02
2022-11-05T15:12:22.235Z,8.60
2022-11-05T15:14:58.940Z,6.55
2022-11-05T15:17:30.878Z,8.98
2022-11-05T15:20:08.362Z,6.50
2022-11-05T15:22:41.687Z,5.20
2022-11-05T15:25:19.876Z,8.68
2022-11-05T15:28:15.589Z,10.45
2022-11-05T15:30:58.203Z,7.90
2022-11-05T15:33:26.276Z,7.15
2022-11-05T15:35:54.715Z,9.10
2022-11-05T15:38:33.999Z,6.57
2022-11-05T15:41:07.364Z,9.00
2022-11-05T15:43:35.431Z,11.88
2022-11-05T15:46:06.603Z,8.60
2022-11-05T15:48:36.754Z,8.50
2022-11-05T15:51:05.163Z,7.65
2022-11-05T15:54:28.621Z,8.10
2022-11-05T15:56:50.367Z,6.30
2022-11-05T15:59:20.489Z,12.68
2022-11-05T16:01:50.970Z,10.82
2022-11-05T16:04:27.954Z,7.25
2022-11-05T16:07:00.969Z,8.35
2022-11-05T16:09:31.098Z,9.00
2022-11-05T16:12:27.194Z,8.68
2022-11-05T16:14:59.991Z,8.80
2022-11-05T16:17:33.933Z,11.15
2022-11-05T16:20:03.692Z,10.20
2022-11-05T16:22:46.877Z,13.73
2022-11-05T16:28:02.596Z,8.25
2022-11-05T16:30:31.818Z,9.27
2022-11-05T16:33:09.054Z,9.52
2022-11-05T16:35:41.715Z,11.40
2022-11-05T16:38:13.250Z,12.48
2022-11-05T16:40:41.592Z,11.50
2022-11-05T16:43:20.530Z,8.70
2022-11-05T16:45:48.602Z,10.10
2022-11-05T16:48:17.088Z,13.25
2022-11-05T16:50:46.847Z,10.65
2022-11-05T16:53:18.272Z,10.90
2022-11-05T16:55:47.022Z,12.88
2022-11-05T16:58:21.893Z,13.20
2022-11-05T17:00:50.787Z,12.18
2022-11-05T17:03:20.712Z,15.68
2022-11-05T17:05:49.335Z,12.90
2022-11-05T17:08:17.617Z,14.70
2022-11-05T17:10:46.001Z,12.82
2022-11-05T17:13:15.926Z,13.63
2022-11-05T17:15:47.390Z,13.57
2022-11-05T17:18:18.837Z,11.70
2022-11-05T17:20:49.015Z,17.48
2022-11-05T17:23:19.052Z,16.70
2022-11-05T17:25:49.060Z,11.82
2022-11-05T17:28:20.700Z,12.30
2022-11-05T17:30:52.852Z,12.83
2022-11-05T17:33:22.912Z,14.15
2022-11-05T17:35:51.428Z,16.83
2022-11-05T17:38:19.743Z,22.23
2022-11-05T17:40:47.680Z,21.08
2022-11-05T17:43:25.810Z,23.15
2022-11-05T17:45:58.641Z,19.88
2022-11-05T17:48:46.586Z,22.23
2022-11-05T17:51:18.458Z,18.42
2022-11-05T17:53:49.359Z,12.38
2022-11-05T17:56:30.509Z,16.00
2022-11-05T17:59:01.283Z,20.35
2022-11-05T18:01:37.363Z,15.98
2022-11-05T18:04:08.846Z,19.30
2022-11-05T18:06:40.162Z,19.15
2022-11-05T18:09:10.008Z,16.77
2022-11-05T18:11:39.117Z,15.82
2022-11-05T18:14:07.624Z,16.77
2022-11-05T18:16:37.435Z,13.85
2022-11-05T18:19:05.812Z,16.02
2022-11-05T18:21:33.748Z,22.08
2022-11-05T18:24:04.439Z,20.08
2022-11-05T18:26:35.263Z,22.45
2022-11-05T18:29:09.366Z,18.48
2022-11-05T18:31:38.842Z,20.83
2022-11-05T18:34:06.806Z,24.00
2022-11-05T18:36:34.958Z,15.68
2022-11-05T18:39:04.532Z,17.38
2022-11-05T18:41:33.500Z,18.50
2022-11-05T18:44:02.297Z,21.65
2022-11-05T18:46:56.499Z,18.65
2022-11-05T18:49:20.554Z,22.20
2022-11-05T18:51:48.651Z,21.73
2022-11-05T18:54:16.979Z,17.08
2022-11-05T18:56:46.062Z,23.23
2022-11-05T18:59:35.895Z,13.80
2022-11-05T19:02:03.199Z,19.25
2022-11-05T19:04:33.838Z,19.98
2022-11-05T19:07:05.099Z,20.63
2022-11-05T19:09:35.912Z,22.35
2022-11-05T19:12:05.197Z,23.08
2022-11-05T19:14:33.235Z,23.02
2022-11-05T19:17:01.996Z,24.58
2022-11-05T19:19:30.066Z,20.20
2022-11-05T19:21:59.712Z,21.63
2022-11-05T19:24:29.679Z,21.30
2022-11-05T19:26:57.942Z,20.60
2022-11-05T19:29:25.843Z,15.80
2022-11-05T19:31:54.412Z,19.45
2022-11-05T19:34:22.489Z,20.98
2022-11-05T19:36:50.504Z,25.63
2022-11-05T19:39:19.952Z,24.65
2022-11-05T19:41:49.663Z,18.23
2022-11-05T19:44:21.611Z,20.55
2022-11-05T19:46:49.773Z,22.15
2022-11-05T19:49:18.262Z,19.75
2022-11-05T19:51:48.410Z,16.40
2022-11-05T19:54:17.075Z,15.05
2022-11-05T19:56:46.636Z,15.48
2022-11-05T19:59:15.007Z,14.48
2022-11-05T20:01:45.998Z,15.57
2022-11-05T20:04:14.238Z,16.60
2022-11-05T20:06:42.228Z,14.07
2022-11-05T20:09:22.618Z,19.58
2022-11-05T20:11:57.063Z,15.25
2022-11-05T20:14:28.193Z,14.32
2022-11-05T20:16:58.918Z,17.45
2022-11-05T20:19:29.239Z,17.92
2022-11-05T20:22:00.490Z,16.00
2022-11-05T20:24:28.554Z,16.77
2022-11-05T20:27:02.913Z,15.45
2022-11-05T20:29:38.373Z,14.13
2022-11-05T20:32:08.135Z,15.32
2022-11-05T20:34:36.254Z,12.55
2022-11-05T20:37:04.263Z,16.88
2022-11-05T20:39:36.847Z,15.48
2022-11-05T20:42:09.178Z,15.30
2022-11-05T20:44:39.681Z,17.25
2022-11-05T20:47:10.156Z,15.65
2022-11-05T20:49:41.149Z,15.55
2022-11-05T20:52:19.809Z,15.00
2022-11-05T20:54:50.959Z,21.13
2022-11-05T20:57:20.376Z,15.60
2022-11-05T20:59:48.310Z,15.05
2022-11-05T21:02:16.345Z,14.68
2022-11-05T21:04:44.485Z,15.77
2022-11-05T21:07:12.481Z,14.65
2022-11-05T21:09:40.581Z,16.73
2022-11-05T21:12:11.443Z,19.08
2022-11-05T21:14:44.642Z,23.27
2022-11-05T21:17:14.618Z,14.57
2022-11-05T21:19:42.587Z,15.13
2022-11-05T21:22:15.115Z,16.35
2022-11-05T21:27:11.546Z,12.73
2022-11-05T21:29:41.115Z,20.17
2022-11-05T21:32:09.184Z,17.67
2022-11-05T21:34:37.410Z,15.88
2022-11-05T21:37:06.923Z,17.17
2022-11-05T21:39:36.348Z,17.02
2022-11-05T21:42:04.504Z,15.93
2022-11-05T21:44:32.657Z,23.55
2022-11-05T21:47:04.424Z,15.95
2022-11-05T21:49:35.014Z,21.45
2022-11-05T21:52:20.581Z,18.70
2022-11-05T21:55:08.437Z,19.35
2022-11-05T21:57:53.749Z,20.13
2022-11-05T22:00:21.760Z,18.70
2022-11-05T22:02:51.237Z,23.38
2022-11-05T22:05:21.562Z,23.13
2022-11-05T22:07:56.151Z,23.63
2022-11-05T22:10:24.549Z,26.65
2022-11-05T22:13:01.249Z,20.55
2022-11-05T22:15:29.399Z,21.52
2022-11-05T22:18:00.577Z,27.95
2022-11-05T22:20:28.447Z,18.00
2022-11-05T22:22:56.379Z,24.10
2022-11-05T22:25:24.307Z,25.45
2022-11-05T22:27:52.368Z,17.98
2022-11-05T22:30:20.574Z,22.05
2022-11-05T22:32:48.442Z,18.90
2022-11-05T22:35:17.909Z,21.60
2022-11-05T22:37:46.431Z,20.90
2022-11-05T22:40:14.513Z,16.42
2022-11-05T22:42:42.603Z,20.83
2022-11-05T22:45:11.564Z,17.83
2022-11-05T22:47:42.352Z,22.85
2022-11-05T22:50:11.222Z,20.98
2022-11-05T22:52:40.610Z,16.38
2022-11-05T22:55:09.156Z,16.30
2022-11-05T22:57:37.025Z,16.75
2022-11-05T23:00:13.310Z,22.10
2022-11-05T23:02:41.462Z,17.00
2022-11-05T23:05:10.150Z,13.82
2022-11-05T23:07:57.680Z,14.80
2022-11-05T23:10:44.309Z,18.65
2022-11-05T23:13:12.230Z,16.20
2022-11-05T23:15:57.845Z,14.35
2022-11-05T23:18:43.605Z,17.17
2022-11-05T23:21:28.963Z,16.42
2022-11-05T23:24:07.021Z,21.13
2022-11-05T23:26:51.099Z,20.48
2022-11-05T23:29:20.209Z,18.10
2022-11-05T23:32:05.698Z,18.15
2022-11-05T23:34:33.557Z,24.77
2022-11-05T23:37:19.205Z,21.67
2022-11-05T23:39:48.422Z,17.77
2022-11-05T23:42:33.726Z,17.75
2022-11-05T23:45:19.295Z,18.67
2022-11-05T23:48:04.882Z,20.10
2022-11-05T23:50:38.527Z,21.08
2022-11-05T23:53:09.589Z,22.02
2022-11-05T23:55:39.470Z,21.77
2022-11-05T23:58:08.003Z,19.38
